METAR Data
IDs: Format: Raw Decoded Include TAF

Data at: 1252 UTC 15 Jul 2020

KJAU 151235Z AUTO 00000KT 10SM CLR 22/18 A3015 RMK A01
KJAU 151215Z AUTO 00000KT 10SM CLR 21/18 A3015 RMK A01
KJAU 151155Z AUTO 00000KT 10SM CLR 20/18 A3014 RMK A01
KJAU 151135Z AUTO 00000KT 10SM CLR 19/18 A3014 RMK A01
KJAU 151115Z AUTO 00000KT 10SM CLR 18/17 A3013 RMK A01
KJAU 151055Z AUTO 00000KT 9SM CLR 17/17 A3013 RMK A01
KJAU 151035Z AUTO 00000KT 9SM CLR 17/16 A3013 RMK A01
KJAU 151015Z AUTO 00000KT 8SM CLR 17/16 A3013 RMK A01
KJAU 150955Z AUTO 00000KT 10SM CLR 17/17 A3012 RMK A01
KJAU 150935Z AUTO 00000KT 10SM CLR 17/17 A3012 RMK A01
KJAU 150915Z AUTO 00000KT 10SM CLR 17/17 A3012 RMK A01
KJAU 150855Z AUTO 00000KT 10SM CLR 17/17 A3012 RMK A01
KJAU 150835Z AUTO 00000KT 10SM CLR 18/17 A3011 RMK A01
KJAU 150815Z AUTO 00000KT 10SM CLR 18/17 A3010 RMK A01
KJAU 150755Z AUTO 00000KT 10SM CLR 18/17 A3010 RMK A01
KJAU 150735Z AUTO 00000KT 10SM CLR 18/17 A3011 RMK A01
KJAU 150715Z AUTO 00000KT 10SM CLR 18/18 A3010 RMK A01
KJAU 150655Z AUTO 00000KT 10SM CLR 19/18 A3011 RMK A01
KJAU 150635Z AUTO 00000KT 10SM CLR 18/17 A3011 RMK A01
KJAU 150615Z AUTO 00000KT 10SM CLR 19/18 A3010 RMK A01
KJAU 150555Z AUTO 00000KT 10SM CLR 19/18 A3010 RMK A01
KJAU 150535Z AUTO 00000KT 10SM CLR 19/18 A3011 RMK A01
KJAU 150515Z AUTO 00000KT 10SM CLR 20/18 A3012 RMK A01
KJAU 150455Z AUTO 00000KT 10SM CLR 20/18 A3012 RMK A01
KJAU 150435Z AUTO 00000KT 10SM CLR 20/18 A3012 RMK A01
KJAU 150415Z AUTO 00000KT 10SM CLR 20/18 A3012 RMK A01
KJAU 150355Z AUTO 00000KT 10SM CLR 20/18 A3012 RMK A01
KJAU 150335Z AUTO 00000KT 10SM CLR 21/19 A3012 RMK A01
KJAU 150315Z AUTO 00000KT 10SM CLR 21/18 A3012 RMK A01
KJAU 150255Z AUTO 00000KT 10SM CLR 21/19 A3011 RMK A01
KJAU 150235Z AUTO 00000KT 10SM CLR 22/19 A3011 RMK A01
KJAU 150215Z AUTO 00000KT 10SM CLR 22/18 A3011 RMK A01
KJAU 150155Z AUTO 00000KT 10SM CLR 22/19 A3010 RMK A01
KJAU 150135Z AUTO 00000KT 10SM CLR 23/19 A3009 RMK A01
KJAU 150115Z AUTO 00000KT 10SM CLR 24/19 A3009 RMK A01
KJAU 150055Z AUTO 00000KT 10SM CLR 25/18 A3009 RMK A01
KJAU 150035Z AUTO 35003KT 10SM CLR 26/18 A3008 RMK A01
KJAU 150015Z AUTO 36004KT 10SM CLR 28/17 A3008 RMK A01
KJAU 142355Z AUTO 00000KT 10SM CLR 29/17 A3007 RMK A01
KJAU 142335Z AUTO 04005KT 10SM CLR 30/17 A3007 RMK A01
KJAU 142315Z AUTO 00000KT 10SM CLR 30/16 A3007 RMK A01
KJAU 142255Z AUTO VRB04KT 10SM CLR 31/16 A3006 RMK A01
KJAU 142235Z AUTO 00000KT 10SM CLR 31/15 A3007 RMK A01
KJAU 142215Z AUTO VRB04KT 10SM CLR 31/16 A3007 RMK A01
KJAU 142155Z AUTO VRB04G11KT 10SM CLR 31/15 A3007 RMK A01
KJAU 142135Z AUTO 03004KT 10SM CLR 31/17 A3008 RMK A01
KJAU 142115Z AUTO 06006KT 10SM FEW060 31/17 A3008 RMK A01
KJAU 142055Z AUTO 34004KT 10SM FEW065 31/16 A3008 RMK A01
KJAU 142035Z AUTO 00000KT 10SM CLR 31/16 A3008 RMK A01
KJAU 142015Z AUTO VRB05G10KT 10SM CLR 31/16 A3008 RMK A01
KJAU 141955Z AUTO 00000KT 10SM CLR 31/16 A3008 RMK A01
KJAU 141935Z AUTO 00000KT 10SM CLR 31/16 A3008 RMK A01
KJAU 141915Z AUTO VRB06KT 10SM CLR 31/17 A3008 RMK A01
KJAU 141855Z AUTO 00000KT 10SM CLR 30/16 A3008 RMK A01
KJAU 141835Z AUTO VRB05G11KT 10SM CLR 30/17 A3008 RMK A01
KJAU 141815Z AUTO 00000KT 10SM CLR 30/16 A3008 RMK A01
KJAU 141755Z AUTO 13007KT 090V150 10SM CLR 30/17 A3009 RMK A01
KJAU 141735Z AUTO 00000KT 10SM CLR 30/16 A3008 RMK A01
KJAU 141715Z AUTO 07006KT 10SM CLR 30/16 A3009 RMK A01
KJAU 141655Z AUTO 09005KT 10SM CLR 30/16 A3009 RMK A01
KJAU 141635Z AUTO 00000KT 10SM CLR 29/16 A3010 RMK A01
KJAU 141615Z AUTO 00000KT 10SM CLR 29/17 A3010 RMK A01
KJAU 141555Z AUTO 13005KT 10SM CLR 29/17 A3010 RMK A01
KJAU 141535Z AUTO 00000KT 10SM CLR 28/17 A3010 RMK A01
KJAU 141515Z AUTO 00000KT 10SM CLR 28/18 A3010 RMK A01
KJAU 141455Z AUTO 00000KT 10SM CLR 27/18 A3011 RMK A01
KJAU 141435Z AUTO 00000KT 10SM CLR 27/19 A3012 RMK A01
KJAU 141415Z AUTO 02003KT 10SM CLR 26/18 A3012 RMK A01
KJAU 141355Z AUTO 00000KT 10SM CLR 25/19 A3012 RMK A01
KJAU 141335Z AUTO 00000KT 10SM CLR 24/19 A3012 RMK A01
KJAU 141315Z AUTO 00000KT 10SM CLR 23/19 A3011 RMK A01
KJAU 141255Z AUTO 00000KT 10SM CLR 22/19 A3011 RMK A01
KJAU 141235Z AUTO 00000KT 10SM CLR 21/18 A3011 RMK A01
KJAU 141215Z AUTO 00000KT 10SM CLR 20/18 A3010 RMK A01
KJAU 141155Z AUTO 00000KT 10SM CLR 19/18 A3009 RMK A01
KJAU 141135Z AUTO 00000KT 9SM CLR 18/17 A3009 RMK A01
KJAU 141115Z AUTO 00000KT 8SM CLR 17/16 A3008 RMK A01
KJAU 141055Z AUTO 00000KT 6SM BR CLR 16/16 A3007 RMK A01
KJAU 141035Z AUTO 00000KT 10SM CLR 16/16 A3007 RMK A01
KJAU 141015Z AUTO 00000KT 7SM CLR 16/16 A3006 RMK A01
KJAU 140955Z AUTO 00000KT 1/2SM BR VV005 16/16 A3005 RMK A01
KJAU 140935Z AUTO 00000KT 10SM CLR 17/17 A3004 RMK A01
KJAU 140915Z AUTO 00000KT 2SM BR CLR 17/17 A3004 RMK A01 VIS 3/4V5
KJAU 140855Z AUTO 00000KT 10SM CLR 17/17 A3004 RMK A01
KJAU 140835Z AUTO 00000KT 4SM BR CLR 17/17 A3003 RMK A01
KJAU 140815Z AUTO 00000KT 3SM BR CLR 17/17 A3003 RMK A01
KJAU 140755Z AUTO 00000KT 4SM BR CLR 17/17 A3004 RMK A01
KJAU 140735Z AUTO 00000KT 10SM CLR 18/17 A3004 RMK A01
KJAU 140715Z AUTO 00000KT 9SM CLR 18/17 A3004 RMK A01
KJAU 140655Z AUTO 00000KT 7SM CLR 17/17 A3005 RMK A01
KJAU 140635Z AUTO 00000KT 10SM CLR 18/18 A3004 RMK A01
KJAU 140615Z AUTO 00000KT 10SM CLR 18/18 A3005 RMK A01
KJAU 140555Z AUTO 00000KT 10SM CLR 18/18 A3005 RMK A01
KJAU 140535Z AUTO 00000KT 10SM CLR 18/18 A3005 RMK A01
KJAU 140515Z AUTO 00000KT 10SM CLR 19/18 A3005 RMK A01
KJAU 140455Z AUTO 00000KT 10SM CLR 19/18 A3005 RMK A01
KJAU 140435Z AUTO 00000KT 10SM CLR 19/18 A3005 RMK A01
KJAU 140415Z AUTO 00000KT 10SM CLR 20/18 A3004 RMK A01
KJAU 140355Z AUTO 00000KT 10SM CLR 20/18 A3004 RMK A01
KJAU 140335Z AUTO 00000KT 10SM CLR 20/18 A3004 RMK A01
KJAU 140315Z AUTO 00000KT 10SM CLR 20/18 A3003 RMK A01
KJAU 140255Z AUTO 00000KT 10SM CLR 21/19 A3003 RMK A01
KJAU 140235Z AUTO 00000KT 10SM CLR 21/19 A3002 RMK A01
KJAU 140215Z AUTO 00000KT 10SM CLR 21/19 A3001 RMK A01
KJAU 140155Z AUTO 22005KT 10SM CLR 22/18 A3001 RMK A01
KJAU 140135Z AUTO 00000KT 10SM CLR 23/18 A3000 RMK A01
KJAU 140115Z AUTO 00000KT 10SM CLR 24/19 A2999 RMK A01
KJAU 140055Z AUTO VRB03KT 10SM CLR 25/18 A2999 RMK A01